sensor_id;sensor_type;location;lat;lon;timestamp;pressure;altitude;pressure_sealevel;temperature;humidity
55373;BME280;70018;47.838;16.490;2023-09-19T00:00:46;98760.34;;;16.06;58.34
55373;BME280;70018;47.838;16.490;2023-09-19T00:03:14;98762.88;;;16.01;58.41
55373;BME280;70018;47.838;16.490;2023-09-19T00:05:41;98770.59;;;15.97;58.62
55373;BME280;70018;47.838;16.490;2023-09-19T00:08:12;98763.13;;;15.94;58.52
55373;BME280;70018;47.838;16.490;2023-09-19T00:10:40;98768.03;;;15.90;58.81
55373;BME280;70018;47.838;16.490;2023-09-19T00:13:09;98764.22;;;15.84;58.98
55373;BME280;70018;47.838;16.490;2023-09-19T00:15:45;98763.28;;;15.74;59.41
55373;BME280;70018;47.838;16.490;2023-09-19T00:18:19;98762.72;;;15.67;59.40
55373;BME280;70018;47.838;16.490;2023-09-19T00:20:51;98770.56;;;15.59;59.96
55373;BME280;70018;47.838;16.490;2023-09-19T00:23:18;98774.88;;;15.47;60.82
55373;BME280;70018;47.838;16.490;2023-09-19T00:25:46;98768.91;;;15.33;61.40
55373;BME280;70018;47.838;16.490;2023-09-19T00:28:13;98771.63;;;15.20;62.50
55373;BME280;70018;47.838;16.490;2023-09-19T00:30:43;98773.72;;;15.04;63.38
55373;BME280;70018;47.838;16.490;2023-09-19T00:33:11;98775.13;;;14.79;64.27
55373;BME280;70018;47.838;16.490;2023-09-19T00:35:52;98776.31;;;14.66;65.21
55373;BME280;70018;47.838;16.490;2023-09-19T00:38:20;98783.72;;;14.56;64.07
55373;BME280;70018;47.838;16.490;2023-09-19T00:40:48;98794.56;;;14.54;65.08
55373;BME280;70018;47.838;16.490;2023-09-19T00:43:15;98800.56;;;14.53;65.02
55373;BME280;70018;47.838;16.490;2023-09-19T00:45:44;98809.41;;;14.51;64.24
55373;BME280;70018;47.838;16.490;2023-09-19T00:48:12;98815.91;;;14.45;65.49
55373;BME280;70018;47.838;16.490;2023-09-19T00:50:41;98829.84;;;14.28;66.36
55373;BME280;70018;47.838;16.490;2023-09-19T00:53:09;98834.25;;;14.10;69.22
55373;BME280;70018;47.838;16.490;2023-09-19T00:55:37;98851.13;;;13.87;71.05
55373;BME280;70018;47.838;16.490;2023-09-19T00:58:04;98852.41;;;13.62;73.16
55373;BME280;70018;47.838;16.490;2023-09-19T01:00:33;98845.59;;;13.44;72.20
55373;BME280;70018;47.838;16.490;2023-09-19T01:03:00;98840.66;;;13.32;73.22
55373;BME280;70018;47.838;16.490;2023-09-19T01:05:28;98850.31;;;13.27;74.38
55373;BME280;70018;47.838;16.490;2023-09-19T01:07:56;98832.53;;;13.18;75.00
55373;BME280;70018;47.838;16.490;2023-09-19T01:10:22;98837.94;;;13.05;76.04
55373;BME280;70018;47.838;16.490;2023-09-19T01:21:57;98857.78;;;12.64;75.71
55373;BME280;70018;47.838;16.490;2023-09-19T01:27:29;98858.38;;;12.52;77.65
55373;BME280;70018;47.838;16.490;2023-09-19T01:30:17;98864.78;;;12.46;77.48
55373;BME280;70018;47.838;16.490;2023-09-19T01:32:44;98859.75;;;12.37;77.22
55373;BME280;70018;47.838;16.490;2023-09-19T01:35:12;98865.81;;;12.32;78.13
55373;BME280;70018;47.838;16.490;2023-09-19T01:37:40;98859.94;;;12.23;78.61
55373;BME280;70018;47.838;16.490;2023-09-19T01:40:13;98868.84;;;12.14;79.09
55373;BME280;70018;47.838;16.490;2023-09-19T01:42:52;98859.34;;;12.12;83.79
55373;BME280;70018;47.838;16.490;2023-09-19T01:45:46;98869.81;;;12.01;82.06
55373;BME280;70018;47.838;16.490;2023-09-19T01:51:09;98863.25;;;11.88;80.90
55373;BME280;70018;47.838;16.490;2023-09-19T01:53:43;98864.91;;;11.82;81.78
55373;BME280;70018;47.838;16.490;2023-09-19T01:56:36;98868.94;;;11.77;83.73
55373;BME280;70018;47.838;16.490;2023-09-19T01:59:08;98871.38;;;11.71;82.39
55373;BME280;70018;47.838;16.490;2023-09-19T02:01:37;98859.13;;;11.65;83.19
55373;BME280;70018;47.838;16.490;2023-09-19T02:04:04;98868.72;;;11.61;84.22
55373;BME280;70018;47.838;16.490;2023-09-19T02:06:32;98849.25;;;11.61;84.89
55373;BME280;70018;47.838;16.490;2023-09-19T02:09:00;98842.16;;;11.56;86.74
55373;BME280;70018;47.838;16.490;2023-09-19T02:11:26;98833.09;;;11.52;87.07
55373;BME280;70018;47.838;16.490;2023-09-19T02:13:53;98845.00;;;11.49;88.07
55373;BME280;70018;47.838;16.490;2023-09-19T02:16:21;98842.59;;;11.51;87.40
55373;BME280;70018;47.838;16.490;2023-09-19T02:18:48;98840.56;;;11.55;86.81
55373;BME280;70018;47.838;16.490;2023-09-19T02:21:16;98840.97;;;11.57;85.18
55373;BME280;70018;47.838;16.490;2023-09-19T02:23:44;98840.13;;;11.60;85.31
55373;BME280;70018;47.838;16.490;2023-09-19T02:26:13;98839.34;;;11.60;85.04
55373;BME280;70018;47.838;16.490;2023-09-19T02:28:40;98838.59;;;11.56;85.13
55373;BME280;70018;47.838;16.490;2023-09-19T02:31:07;98836.25;;;11.54;85.15
55373;BME280;70018;47.838;16.490;2023-09-19T02:33:34;98830.69;;;11.51;86.37
55373;BME280;70018;47.838;16.490;2023-09-19T02:36:01;98831.94;;;11.46;86.54
55373;BME280;70018;47.838;16.490;2023-09-19T02:38:29;98827.56;;;11.45;85.68
55373;BME280;70018;47.838;16.490;2023-09-19T02:40:56;98827.56;;;11.45;84.66
55373;BME280;70018;47.838;16.490;2023-09-19T02:43:23;98829.13;;;11.50;85.12
55373;BME280;70018;47.838;16.490;2023-09-19T02:45:50;98826.31;;;11.53;84.39
55373;BME280;70018;47.838;16.490;2023-09-19T02:48:16;98829.47;;;11.55;83.60
55373;BME280;70018;47.838;16.490;2023-09-19T02:50:45;98829.78;;;11.61;84.11
55373;BME280;70018;47.838;16.490;2023-09-19T02:53:12;98831.38;;;11.62;83.22
55373;BME280;70018;47.838;16.490;2023-09-19T02:55:39;98829.34;;;11.66;83.50
55373;BME280;70018;47.838;16.490;2023-09-19T02:58:09;98838.03;;;11.68;82.80
55373;BME280;70018;47.838;16.490;2023-09-19T03:00:38;98848.69;;;11.77;82.73
55373;BME280;70018;47.838;16.490;2023-09-19T03:03:05;98848.56;;;11.84;82.00
55373;BME280;70018;47.838;16.490;2023-09-19T03:05:35;98844.59;;;11.85;81.84
55373;BME280;70018;47.838;16.490;2023-09-19T03:08:01;98842.09;;;11.94;81.74
55373;BME280;70018;47.838;16.490;2023-09-19T03:10:28;98835.91;;;11.83;82.37
55373;BME280;70018;47.838;16.490;2023-09-19T03:12:56;98835.59;;;11.73;83.14
55373;BME280;70018;47.838;16.490;2023-09-19T03:15:23;98833.63;;;11.70;83.42
55373;BME280;70018;47.838;16.490;2023-09-19T03:17:50;98830.56;;;11.65;82.74
55373;BME280;70018;47.838;16.490;2023-09-19T03:20:20;98830.56;;;11.65;84.15
55373;BME280;70018;47.838;16.490;2023-09-19T03:22:48;98823.84;;;11.62;84.62
55373;BME280;70018;47.838;16.490;2023-09-19T03:25:15;98812.31;;;11.60;85.09
55373;BME280;70018;47.838;16.490;2023-09-19T03:27:44;98820.34;;;11.55;86.33
55373;BME280;70018;47.838;16.490;2023-09-19T03:30:10;98816.00;;;11.50;86.20
55373;BME280;70018;47.838;16.490;2023-09-19T03:32:46;98814.06;;;11.47;85.48
55373;BME280;70018;47.838;16.490;2023-09-19T03:35:13;98815.63;;;11.48;85.78
55373;BME280;70018;47.838;16.490;2023-09-19T03:37:41;98818.78;;;11.50;85.40
55373;BME280;70018;47.838;16.490;2023-09-19T03:40:09;98807.63;;;11.57;84.80
55373;BME280;70018;47.838;16.490;2023-09-19T03:42:40;98812.78;;;11.55;83.83
55373;BME280;70018;47.838;16.490;2023-09-19T03:45:08;98820.66;;;11.60;84.83
55373;BME280;70018;47.838;16.490;2023-09-19T03:47:39;98820.59;;;11.67;83.83
55373;BME280;70018;47.838;16.490;2023-09-19T03:50:07;98830.50;;;11.68;83.88
55373;BME280;70018;47.838;16.490;2023-09-19T03:52:37;98827.69;;;11.72;83.95
55373;BME280;70018;47.838;16.490;2023-09-19T03:55:04;98833.75;;;11.63;82.86
55373;BME280;70018;47.838;16.490;2023-09-19T03:57:31;98839.81;;;11.55;82.80
55373;BME280;70018;47.838;16.490;2023-09-19T03:59:58;98848.16;;;11.51;83.01
55373;BME280;70018;47.838;16.490;2023-09-19T04:02:25;98846.19;;;11.48;82.89
55373;BME280;70018;47.838;16.490;2023-09-19T04:04:52;98857.69;;;11.50;83.74
55373;BME280;70018;47.838;16.490;2023-09-19T04:07:19;98853.66;;;11.58;82.92
55373;BME280;70018;47.838;16.490;2023-09-19T04:09:49;98858.13;;;11.49;82.95
55373;BME280;70018;47.838;16.490;2023-09-19T04:12:15;98875.16;;;11.54;82.61
55373;BME280;70018;47.838;16.490;2023-09-19T04:14:45;98881.47;;;11.58;82.49
55373;BME280;70018;47.838;16.490;2023-09-19T04:17:11;98877.84;;;11.61;82.43
55373;BME280;70018;47.838;16.490;2023-09-19T04:19:38;98883.06;;;11.56;82.22
55373;BME280;70018;47.838;16.490;2023-09-19T04:22:05;98887.84;;;11.55;82.34
55373;BME280;70018;47.838;16.490;2023-09-19T04:24:31;98888.63;;;11.56;82.36
55373;BME280;70018;47.838;16.490;2023-09-19T04:26:59;98883.03;;;11.59;82.16
55373;BME280;70018;47.838;16.490;2023-09-19T04:29:25;98890.56;;;11.62;83.27
55373;BME280;70018;47.838;16.490;2023-09-19T04:31:56;98884.53;;;11.67;83.20
55373;BME280;70018;47.838;16.490;2023-09-19T04:34:26;98898.81;;;11.69;84.09
55373;BME280;70018;47.838;16.490;2023-09-19T04:36:53;98890.84;;;11.71;83.66
55373;BME280;70018;47.838;16.490;2023-09-19T04:39:20;98892.81;;;11.74;83.31
55373;BME280;70018;47.838;16.490;2023-09-19T04:41:47;98902.25;;;11.81;82.77
55373;BME280;70018;47.838;16.490;2023-09-19T04:44:14;98917.72;;;11.85;82.43
55373;BME280;70018;47.838;16.490;2023-09-19T04:46:42;98915.31;;;11.84;81.69
55373;BME280;70018;47.838;16.490;2023-09-19T04:49:09;98910.22;;;11.79;82.02
55373;BME280;70018;47.838;16.490;2023-09-19T04:51:35;98916.84;;;11.88;81.49
55373;BME280;70018;47.838;16.490;2023-09-19T04:54:03;98919.25;;;11.90;81.17
55373;BME280;70018;47.838;16.490;2023-09-19T04:56:30;98918.47;;;11.86;81.54
55373;BME280;70018;47.838;16.490;2023-09-19T04:59:00;98927.69;;;11.83;81.10
55373;BME280;70018;47.838;16.490;2023-09-19T05:01:27;98925.75;;;11.76;81.35
55373;BME280;70018;47.838;16.490;2023-09-19T05:03:54;98927.72;;;11.75;81.68
55373;BME280;70018;47.838;16.490;2023-09-19T05:06:21;98926.88;;;11.82;81.73
55373;BME280;70018;47.838;16.490;2023-09-19T05:08:48;98923.94;;;11.93;81.38
55373;BME280;70018;47.838;16.490;2023-09-19T05:11:23;98929.91;;;11.95;81.03
55373;BME280;70018;47.838;16.490;2023-09-19T05:13:50;98939.78;;;11.99;80.87
55373;BME280;70018;47.838;16.490;2023-09-19T05:16:19;98927.03;;;12.02;80.66
55373;BME280;70018;47.838;16.490;2023-09-19T05:18:45;98924.63;;;12.04;80.04
55373;BME280;70018;47.838;16.490;2023-09-19T05:21:12;98944.47;;;12.06;79.96
55373;BME280;70018;47.838;16.490;2023-09-19T05:23:39;98942.91;;;12.05;79.82
55373;BME280;70018;47.838;16.490;2023-09-19T05:26:06;98938.06;;;12.09;79.12
55373;BME280;70018;47.838;16.490;2023-09-19T05:28:33;98938.06;;;12.09;79.02
55373;BME280;70018;47.838;16.490;2023-09-19T05:31:01;98942.00;;;12.11;79.15
55373;BME280;70018;47.838;16.490;2023-09-19T05:33:29;98949.16;;;12.12;78.97
55373;BME280;70018;47.838;16.490;2023-09-19T05:35:57;98933.22;;;12.13;78.83
55373;BME280;70018;47.838;16.490;2023-09-19T05:38:24;98944.69;;;12.18;78.75
55373;BME280;70018;47.838;16.490;2023-09-19T05:40:53;98945.75;;;12.28;78.33
55373;BME280;70018;47.838;16.490;2023-09-19T05:43:20;98938.53;;;12.34;77.85
55373;BME280;70018;47.838;16.490;2023-09-19T05:45:47;98945.63;;;12.38;77.41
55373;BME280;70018;47.838;16.490;2023-09-19T05:48:14;98947.97;;;12.40;77.35
55373;BME280;70018;47.838;16.490;2023-09-19T05:50:43;98959.88;;;12.44;77.20
55373;BME280;70018;47.838;16.490;2023-09-19T05:53:13;98956.97;;;12.51;77.33
55373;BME280;70018;47.838;16.490;2023-09-19T05:55:41;98956.91;;;12.58;76.83
55373;BME280;70018;47.838;16.490;2023-09-19T05:58:08;98950.50;;;12.61;76.49
55373;BME280;70018;47.838;16.490;2023-09-19T06:00:36;98970.78;;;12.62;76.69
55373;BME280;70018;47.838;16.490;2023-09-19T06:03:05;98964.44;;;12.61;76.41
55373;BME280;70018;47.838;16.490;2023-09-19T06:05:32;98962.06;;;12.60;76.34
55373;BME280;70018;47.838;16.490;2023-09-19T06:07:59;98951.69;;;12.60;76.13
55373;BME280;70018;47.838;16.490;2023-09-19T06:10:34;98966.84;;;12.59;76.25
55373;BME280;70018;47.838;16.490;2023-09-19T06:13:02;98966.84;;;12.59;76.14
55373;BME280;70018;47.838;16.490;2023-09-19T06:15:31;98976.00;;;12.60;76.27
55373;BME280;70018;47.838;16.490;2023-09-19T06:17:59;98977.53;;;12.64;75.97
55373;BME280;70018;47.838;16.490;2023-09-19T06:20:26;98978.59;;;12.70;75.97
55373;BME280;70018;47.838;16.490;2023-09-19T06:22:53;98988.03;;;12.80;75.43
55373;BME280;70018;47.838;16.490;2023-09-19T06:25:21;98994.66;;;12.89;75.45
55373;BME280;70018;47.838;16.490;2023-09-19T06:27:50;98996.97;;;12.94;75.12
55373;BME280;70018;47.838;16.490;2023-09-19T06:30:22;98988.63;;;12.94;74.87
55373;BME280;70018;47.838;16.490;2023-09-19T06:32:58;99006.84;;;12.99;74.87
55373;BME280;70018;47.838;16.490;2023-09-19T06:35:26;99004.47;;;12.97;74.50
55373;BME280;70018;47.838;16.490;2023-09-19T06:37:53;99010.13;;;12.94;74.57
55373;BME280;70018;47.838;16.490;2023-09-19T06:40:20;99008.97;;;12.91;74.55
55373;BME280;70018;47.838;16.490;2023-09-19T06:42:50;99009.78;;;12.88;74.79
55373;BME280;70018;47.838;16.490;2023-09-19T06:45:17;99017.00;;;12.86;74.53
55373;BME280;70018;47.838;16.490;2023-09-19T06:47:46;99023.34;;;12.86;74.77
55373;BME280;70018;47.838;16.490;2023-09-19T06:50:20;99022.53;;;12.89;74.13
55373;BME280;70018;47.838;16.490;2023-09-19T06:52:51;99028.94;;;12.86;74.67
55373;BME280;70018;47.838;16.490;2023-09-19T06:55:19;99043.59;;;12.90;74.07
55373;BME280;70018;47.838;16.490;2023-09-19T06:57:47;99051.84;;;12.97;74.18
55373;BME280;70018;47.838;16.490;2023-09-19T07:00:15;99049.69;;;13.09;73.57
55373;BME280;70018;47.838;16.490;2023-09-19T07:02:42;99050.34;;;13.20;73.18
55373;BME280;70018;47.838;16.490;2023-09-19T07:05:09;99045.00;;;13.29;72.53
55373;BME280;70018;47.838;16.490;2023-09-19T07:07:36;99054.38;;;13.42;72.26
55373;BME280;70018;47.838;16.490;2023-09-19T07:10:03;99072.22;;;13.48;71.43
55373;BME280;70018;47.838;16.490;2023-09-19T07:12:32;99067.38;;;13.52;71.36
55373;BME280;70018;47.838;16.490;2023-09-19T07:15:01;99070.88;;;13.56;71.36
55373;BME280;70018;47.838;16.490;2023-09-19T07:17:28;99078.34;;;13.62;71.44
55373;BME280;70018;47.838;16.490;2023-09-19T07:19:56;99081.50;;;13.64;70.27
55373;BME280;70018;47.838;16.490;2023-09-19T07:22:26;99084.59;;;13.70;70.70
55373;BME280;70018;47.838;16.490;2023-09-19T07:24:53;99084.84;;;13.79;70.38
55373;BME280;70018;47.838;16.490;2023-09-19T07:27:19;99088.97;;;13.94;70.01
55373;BME280;70018;47.838;16.490;2023-09-19T07:29:46;99078.75;;;14.07;69.15
55373;BME280;70018;47.838;16.490;2023-09-19T07:32:16;99093.13;;;14.29;69.43
55373;BME280;70018;47.838;16.490;2023-09-19T07:34:43;99092.66;;;14.54;68.81
55373;BME280;70018;47.838;16.490;2023-09-19T07:37:11;99097.88;;;14.71;68.04
55373;BME280;70018;47.838;16.490;2023-09-19T07:39:39;99106.09;;;14.98;66.55
55373;BME280;70018;47.838;16.490;2023-09-19T07:42:07;99106.44;;;15.00;66.91
55373;BME280;70018;47.838;16.490;2023-09-19T07:44:37;99108.56;;;15.12;66.73
55373;BME280;70018;47.838;16.490;2023-09-19T07:47:04;99108.66;;;15.28;66.37
55373;BME280;70018;47.838;16.490;2023-09-19T07:49:31;99110.94;;;15.33;65.32
55373;BME280;70018;47.838;16.490;2023-09-19T07:51:57;99111.84;;;15.27;66.17
55373;BME280;70018;47.838;16.490;2023-09-19T07:54:25;99110.19;;;15.29;65.68
55373;BME280;70018;47.838;16.490;2023-09-19T07:56:53;99111.94;;;15.23;65.76
55373;BME280;70018;47.838;16.490;2023-09-19T07:59:20;99126.28;;;15.25;65.78
55373;BME280;70018;47.838;16.490;2023-09-19T08:01:47;99133.09;;;15.24;65.86
55373;BME280;70018;47.838;16.490;2023-09-19T08:04:14;99137.47;;;15.25;66.07
55373;BME280;70018;47.838;16.490;2023-09-19T08:06:41;99142.09;;;15.32;65.40
55373;BME280;70018;47.838;16.490;2023-09-19T08:09:07;99144.84;;;15.35;65.71
55373;BME280;70018;47.838;16.490;2023-09-19T08:11:37;99147.81;;;15.28;65.04
55373;BME280;70018;47.838;16.490;2023-09-19T08:14:03;99139.06;;;15.26;65.34
55373;BME280;70018;47.838;16.490;2023-09-19T08:16:32;99138.97;;;15.30;65.15
55373;BME280;70018;47.838;16.490;2023-09-19T08:18:59;99143.06;;;15.25;64.91
55373;BME280;70018;47.838;16.490;2023-09-19T08:21:26;99141.06;;;15.26;65.08
55373;BME280;70018;47.838;16.490;2023-09-19T08:23:55;99148.59;;;15.29;65.41
55373;BME280;70018;47.838;16.490;2023-09-19T08:26:23;99150.66;;;15.25;65.59
55373;BME280;70018;47.838;16.490;2023-09-19T08:28:50;99169.91;;;15.19;65.60
55373;BME280;70018;47.838;16.490;2023-09-19T08:31:18;99161.50;;;15.03;65.62
55373;BME280;70018;47.838;16.490;2023-09-19T08:33:44;99174.88;;;14.92;66.31
55373;BME280;70018;47.838;16.490;2023-09-19T08:36:15;99177.91;;;14.81;66.45
55373;BME280;70018;47.838;16.490;2023-09-19T08:38:42;99160.06;;;14.75;66.34
55373;BME280;70018;47.838;16.490;2023-09-19T08:41:09;99169.59;;;14.78;66.76
55373;BME280;70018;47.838;16.490;2023-09-19T08:43:36;99166.16;;;14.90;66.48
55373;BME280;70018;47.838;16.490;2023-09-19T08:46:15;99163.56;;;15.19;66.16
55373;BME280;70018;47.838;16.490;2023-09-19T08:48:48;99164.09;;;15.49;65.40
55373;BME280;70018;47.838;16.490;2023-09-19T08:51:30;99170.44;;;15.86;64.04
55373;BME280;70018;47.838;16.490;2023-09-19T08:56:28;99174.44;;;16.49;62.45
55373;BME280;70018;47.838;16.490;2023-09-19T08:59:00;99167.06;;;16.55;62.12
55373;BME280;70018;47.838;16.490;2023-09-19T09:01:28;99179.28;;;16.77;60.86
55373;BME280;70018;47.838;16.490;2023-09-19T09:03:56;99176.72;;;16.83;61.58
55373;BME280;70018;47.838;16.490;2023-09-19T09:06:24;99183.75;;;16.91;61.56
55373;BME280;70018;47.838;16.490;2023-09-19T09:08:51;99180.97;;;17.04;60.17
55373;BME280;70018;47.838;16.490;2023-09-19T09:11:19;99176.97;;;17.30;60.30
55373;BME280;70018;47.838;16.490;2023-09-19T09:13:46;99180.91;;;17.32;60.09
55373;BME280;70018;47.838;16.490;2023-09-19T09:16:14;99180.03;;;17.35;59.94
55373;BME280;70018;47.838;16.490;2023-09-19T09:18:46;99172.72;;;17.38;59.58
55373;BME280;70018;47.838;16.490;2023-09-19T09:21:19;99170.16;;;17.43;59.50
55373;BME280;70018;47.838;16.490;2023-09-19T09:23:49;99182.81;;;17.23;59.60
55373;BME280;70018;47.838;16.490;2023-09-19T09:26:51;99175.63;;;17.34;58.89
55373;BME280;70018;47.838;16.490;2023-09-19T09:29:40;99171.16;;;17.37;58.33
55373;BME280;70018;47.838;16.490;2023-09-19T09:34:52;99178.13;;;17.45;58.26
55373;BME280;70018;47.838;16.490;2023-09-19T09:37:19;99173.13;;;17.65;57.52
55373;BME280;70018;47.838;16.490;2023-09-19T09:39:50;99174.13;;;17.71;57.18
55373;BME280;70018;47.838;16.490;2023-09-19T09:42:32;99179.94;;;17.89;56.79
55373;BME280;70018;47.838;16.490;2023-09-19T09:45:18;99179.63;;;18.00;55.52
55373;BME280;70018;47.838;16.490;2023-09-19T09:48:00;99184.91;;;17.85;56.27
55373;BME280;70018;47.838;16.490;2023-09-19T09:50:31;99192.41;;;17.51;55.81
55373;BME280;70018;47.838;16.490;2023-09-19T09:53:25;99191.50;;;17.66;56.63
55373;BME280;70018;47.838;16.490;2023-09-19T09:55:57;99186.28;;;17.81;56.61
55373;BME280;70018;47.838;16.490;2023-09-19T09:58:26;99189.59;;;18.01;55.73
55373;BME280;70018;47.838;16.490;2023-09-19T10:00:59;99202.94;;;18.47;55.39
55373;BME280;70018;47.838;16.490;2023-09-19T10:03:40;99192.78;;;18.84;54.56
55373;BME280;70018;47.838;16.490;2023-09-19T10:06:12;99190.28;;;18.64;54.07
55373;BME280;70018;47.838;16.490;2023-09-19T10:09:04;99198.34;;;18.97;53.63
55373;BME280;70018;47.838;16.490;2023-09-19T10:11:47;99197.28;;;18.82;51.99
55373;BME280;70018;47.838;16.490;2023-09-19T10:14:25;99197.59;;;18.62;53.04
55373;BME280;70018;47.838;16.490;2023-09-19T10:16:59;99213.78;;;18.92;52.53
55373;BME280;70018;47.838;16.490;2023-09-19T10:19:36;99216.88;;;19.07;50.88
55373;BME280;70018;47.838;16.490;2023-09-19T10:22:04;99213.38;;;19.37;48.99
55373;BME280;70018;47.838;16.490;2023-09-19T10:24:33;99206.78;;;19.62;49.82
55373;BME280;70018;47.838;16.490;2023-09-19T10:27:14;99223.88;;;19.67;49.19
55373;BME280;70018;47.838;16.490;2023-09-19T10:29:44;99213.72;;;19.70;47.46
55373;BME280;70018;47.838;16.490;2023-09-19T10:32:14;99218.31;;;19.55;48.76
55373;BME280;70018;47.838;16.490;2023-09-19T10:34:49;99209.97;;;19.73;46.79
55373;BME280;70018;47.838;16.490;2023-09-19T10:37:16;99203.63;;;19.60;48.12
55373;BME280;70018;47.838;16.490;2023-09-19T10:39:48;99224.81;;;19.43;47.71
55373;BME280;70018;47.838;16.490;2023-09-19T10:42:19;99208.56;;;19.47;48.42
55373;BME280;70018;47.838;16.490;2023-09-19T10:44:51;99218.47;;;19.82;48.81
55373;BME280;70018;47.838;16.490;2023-09-19T10:47:20;99212.88;;;19.91;47.66
55373;BME280;70018;47.838;16.490;2023-09-19T10:49:50;99203.03;;;19.95;48.54
55373;BME280;70018;47.838;16.490;2023-09-19T10:52:21;99205.41;;;20.06;47.74
55373;BME280;70018;47.838;16.490;2023-09-19T10:54:52;99211.44;;;20.26;48.09
55373;BME280;70018;47.838;16.490;2023-09-19T10:57:24;99196.88;;;19.88;48.51
55373;BME280;70018;47.838;16.490;2023-09-19T11:00:04;99210.50;;;20.29;47.92
55373;BME280;70018;47.838;16.490;2023-09-19T11:05:38;99199.06;;;20.24;47.51
55373;BME280;70018;47.838;16.490;2023-09-19T11:08:08;99197.66;;;20.28;47.29
55373;BME280;70018;47.838;16.490;2023-09-19T11:10:50;99208.78;;;19.83;46.96
55373;BME280;70018;47.838;16.490;2023-09-19T11:13:28;99212.03;;;20.12;46.93
55373;BME280;70018;47.838;16.490;2023-09-19T11:26:51;99205.00;;;20.17;45.30
55373;BME280;70018;47.838;16.490;2023-09-19T11:29:34;99205.25;;;20.58;45.12
55373;BME280;70018;47.838;16.490;2023-09-19T11:32:02;99203.28;;;20.28;45.27
55373;BME280;70018;47.838;16.490;2023-09-19T11:34:37;99215.44;;;20.07;44.37
55373;BME280;70018;47.838;16.490;2023-09-19T11:39:38;99194.38;;;20.39;44.65
55373;BME280;70018;47.838;16.490;2023-09-19T11:48:15;99204.31;;;20.71;42.77
55373;BME280;70018;47.838;16.490;2023-09-19T11:50:42;99209.97;;;20.80;43.05
55373;BME280;70018;47.838;16.490;2023-09-19T11:53:11;99206.16;;;20.37;43.71
55373;BME280;70018;47.838;16.490;2023-09-19T11:55:39;99197.34;;;20.26;44.06
55373;BME280;70018;47.838;16.490;2023-09-19T11:58:07;99188.69;;;20.12;43.40
55373;BME280;70018;47.838;16.490;2023-09-19T12:00:38;99201.59;;;19.91;44.21
55373;BME280;70018;47.838;16.490;2023-09-19T12:03:11;99183.84;;;20.12;44.15
55373;BME280;70018;47.838;16.490;2023-09-19T12:05:39;99194.22;;;20.33;43.96
55373;BME280;70018;47.838;16.490;2023-09-19T12:08:07;99189.97;;;20.29;43.49
55373;BME280;70018;47.838;16.490;2023-09-19T12:10:48;99206.44;;;20.39;42.93
55373;BME280;70018;47.838;16.490;2023-09-19T12:13:19;99188.31;;;20.58;43.55
55373;BME280;70018;47.838;16.490;2023-09-19T12:15:47;99194.47;;;20.84;43.04
55373;BME280;70018;47.838;16.490;2023-09-19T12:18:28;99201.66;;;20.67;42.34
55373;BME280;70018;47.838;16.490;2023-09-19T12:20:55;99180.00;;;20.46;42.87
55373;BME280;70018;47.838;16.490;2023-09-19T12:23:22;99182.78;;;20.37;42.55
55373;BME280;70018;47.838;16.490;2023-09-19T12:25:49;99180.59;;;20.41;42.27
55373;BME280;70018;47.838;16.490;2023-09-19T12:28:20;99188.75;;;20.39;42.58
55373;BME280;70018;47.838;16.490;2023-09-19T12:30:48;99203.97;;;20.50;42.05
55373;BME280;70018;47.838;16.490;2023-09-19T12:33:16;99194.63;;;20.63;42.24
55373;BME280;70018;47.838;16.490;2023-09-19T12:35:46;99186.31;;;20.77;41.51
55373;BME280;70018;47.838;16.490;2023-09-19T12:38:26;99191.50;;;21.15;41.16
55373;BME280;70018;47.838;16.490;2023-09-19T12:40:59;99200.22;;;21.08;41.49
55373;BME280;70018;47.838;16.490;2023-09-19T12:43:29;99191.16;;;21.04;41.73
55373;BME280;70018;47.838;16.490;2023-09-19T12:45:59;99198.69;;;21.07;41.84
55373;BME280;70018;47.838;16.490;2023-09-19T12:48:26;99204.50;;;21.12;39.62
55373;BME280;70018;47.838;16.490;2023-09-19T12:53:34;99194.75;;;21.04;41.52
55373;BME280;70018;47.838;16.490;2023-09-19T12:56:05;99197.13;;;20.79;41.90
55373;BME280;70018;47.838;16.490;2023-09-19T13:01:17;99188.88;;;20.26;42.38
55373;BME280;70018;47.838;16.490;2023-09-19T13:03:44;99194.69;;;20.23;42.71
55373;BME280;70018;47.838;16.490;2023-09-19T13:06:11;99201.00;;;19.96;42.69
55373;BME280;70018;47.838;16.490;2023-09-19T13:08:39;99194.41;;;19.90;42.96
55373;BME280;70018;47.838;16.490;2023-09-19T13:11:12;99199.16;;;19.71;43.29
55373;BME280;70018;47.838;16.490;2023-09-19T13:16:08;99202.63;;;19.45;43.02
55373;BME280;70018;47.838;16.490;2023-09-19T13:18:45;99198.81;;;19.60;41.54
55373;BME280;70018;47.838;16.490;2023-09-19T13:21:13;99199.94;;;19.72;42.83
55373;BME280;70018;47.838;16.490;2023-09-19T13:23:54;99195.59;;;20.20;42.25
55373;BME280;70018;47.838;16.490;2023-09-19T13:26:26;99192.31;;;20.21;41.88
55373;BME280;70018;47.838;16.490;2023-09-19T13:28:54;99190.69;;;20.02;42.56
55373;BME280;70018;47.838;16.490;2023-09-19T13:31:21;99185.25;;;20.17;42.38
55373;BME280;70018;47.838;16.490;2023-09-19T13:33:49;99188.94;;;19.95;42.42
55373;BME280;70018;47.838;16.490;2023-09-19T13:36:16;99188.97;;;19.65;43.03
55373;BME280;70018;47.838;16.490;2023-09-19T13:38:45;99182.81;;;19.57;43.79
55373;BME280;70018;47.838;16.490;2023-09-19T13:41:13;99191.69;;;19.47;42.68
55373;BME280;70018;47.838;16.490;2023-09-19T13:43:40;99188.72;;;19.50;43.50
55373;BME280;70018;47.838;16.490;2023-09-19T13:46:07;99187.16;;;19.49;43.05
55373;BME280;70018;47.838;16.490;2023-09-19T13:48:42;99192.38;;;19.60;43.10
55373;BME280;70018;47.838;16.490;2023-09-19T13:51:08;99182.03;;;19.57;42.77
55373;BME280;70018;47.838;16.490;2023-09-19T13:53:35;99180.59;;;19.52;43.07